Time;durP1;ratioP1;P1;durP2;ratioP2;P2;SDS_P1;SDS_P2;PMS_P1;PMS_P2;Temp;Humidity;BMP_temperature;BMP_pressure;BME280_temperature;BME280_humidity;BME280_pressure;Samples;Min_cycle;Max_cycle;Signal;HPM_P1;HPM_P2
2022/03/27 00:02:41;;;;;;;26.87;9.75;;;;;;;12.05;43.17;101289.28;5569765;32;33962;-65
2022/03/27 00:05:44;;;;;;;29.92;7.70;;;;;;;12.10;43.09;101284.34;5569673;32;35856;-65
2022/03/27 00:08:47;;;;;;;28.98;7.68;;;;;;;12.05;43.26;101283.97;5569571;32;34626;-65
2022/03/27 00:11:49;;;;;;;42.22;8.77;;;;;;;12.12;43.17;101278.88;5555628;32;33441;-65
2022/03/27 00:14:52;;;;;;;17.67;8.18;;;;;;;12.05;43.22;101293.81;5555811;32;35219;-65
2022/03/27 00:17:55;;;;;;;24.33;8.18;;;;;;;11.93;43.64;101297.69;5569808;32;34087;-65
2022/03/27 00:20:57;;;;;;;42.62;8.15;;;;;;;11.97;43.34;101299.88;5569537;32;33982;-65
2022/03/27 00:24:01;;;;;;;22.80;7.80;;;;;;;11.84;43.91;101286.16;5569347;32;34306;-65
2022/03/27 00:27:04;;;;;;;34.85;8.20;;;;;;;11.90;43.76;101280.22;5568890;32;33997;-65
2022/03/27 00:30:07;;;;;;;28.62;7.15;;;;;;;11.74;44.12;101288.88;5569532;32;34048;-65
2022/03/27 00:33:10;;;;;;;17.00;6.85;;;;;;;11.68;44.50;101297.44;5569247;32;34274;-64
2022/03/27 00:36:16;;;;;;;31.85;8.27;;;;;;;11.61;44.74;101293.75;5555552;32;34074;-65
2022/03/27 00:39:18;;;;;;;18.08;7.43;;;;;;;11.71;44.31;101309.59;5569187;32;34616;-65
2022/03/27 00:42:21;;;;;;;22.60;7.53;;;;;;;11.76;44.11;101304.69;5555789;32;35224;-65
2022/03/27 00:45:24;;;;;;;16.45;7.95;;;;;;;11.70;44.20;101307.94;5569377;32;34412;-65
2022/03/27 00:48:27;;;;;;;17.23;7.45;;;;;;;11.64;44.31;101305.88;5568912;32;34594;-65
2022/03/27 00:51:30;;;;;;;15.85;7.35;;;;;;;11.54;44.53;101305.09;5568930;32;34281;-65
2022/03/27 00:54:33;;;;;;;14.30;7.65;;;;;;;11.38;44.75;101316.41;5568962;32;33972;-65
2022/03/27 00:57:36;;;;;;;15.57;7.43;;;;;;;11.28;45.20;101315.63;5569219;32;33991;-65
2022/03/27 01:00:39;;;;;;;16.58;7.75;;;;;;;11.18;45.41;101314.87;5568826;32;34002;-65
2022/03/27 01:03:43;;;;;;;16.75;7.37;;;;;;;11.15;45.46;101315.16;5554887;32;34680;-65
2022/03/27 01:06:46;;;;;;;15.80;7.35;;;;;;;11.06;45.71;101311.56;5568641;32;34590;-65
2022/03/27 01:09:49;;;;;;;15.95;8.15;;;;;;;11.07;45.79;101313.25;5568437;32;33944;-65
2022/03/27 01:12:52;;;;;;;19.80;7.85;;;;;;;10.96;46.38;101310.78;5568542;32;33930;-65
2022/03/27 01:16:00;;;;;;;16.98;7.57;;;;;;;10.99;46.21;101312.31;5568484;32;34112;-65
2022/03/27 01:19:04;;;;;;;16.27;7.35;;;;;;;11.02;45.99;101315.50;5568436;32;34021;-65
2022/03/27 01:22:07;;;;;;;18.62;7.87;;;;;;;10.97;46.09;101312.47;5542345;32;34025;-65
2022/03/27 01:25:10;;;;;;;13.95;7.82;;;;;;;10.95;46.17;101321.53;5568167;32;33900;-65
2022/03/27 01:28:14;;;;;;;17.02;7.43;;;;;;;10.88;46.19;101324.81;5568056;32;34019;-65
2022/03/27 01:31:18;;;;;;;15.93;7.53;;;;;;;10.88;46.11;101332.78;5568206;32;34161;-66
2022/03/27 01:34:21;;;;;;;17.27;7.72;;;;;;;10.86;46.31;101336.53;5554581;32;34341;-65
2022/03/27 01:37:24;;;;;;;17.35;8.05;;;;;;;10.74;46.46;101341.22;5568292;32;34150;-65
2022/03/27 01:40:27;;;;;;;15.43;7.55;;;;;;;10.69;46.64;101345.28;5556937;32;32704;-65
2022/03/27 01:43:30;;;;;;;18.30;8.32;;;;;;;10.56;47.09;101345.59;5557271;32;34088;-65
2022/03/27 01:46:36;;;;;;;17.10;7.82;;;;;;;10.52;47.25;101340.72;5570934;32;33925;-65
2022/03/27 01:49:41;;;;;;;21.42;7.80;;;;;;;10.48;47.32;101337.50;5570951;32;33854;-65
2022/03/27 01:52:43;;;;;;;25.58;8.60;;;;;;;10.53;47.16;101342.37;5570774;32;34023;-64
2022/03/27 01:55:47;;;;;;;17.27;8.52;;;;;;;10.43;47.49;101347.72;5570784;32;34639;-65
2022/03/27 01:58:50;;;;;;;18.00;8.45;;;;;;;10.37;47.59;101354.44;5571218;32;34558;-65
2022/03/27 02:01:53;;;;;;;21.62;8.15;;;;;;;10.34;47.71;101361.84;5570797;32;34599;-65
2022/03/27 02:04:56;;;;;;;15.38;6.95;;;;;;;10.27;47.80;101368.69;5557155;32;34611;-65
2022/03/27 02:07:59;;;;;;;19.20;7.70;;;;;;;10.35;47.84;101360.88;5570618;32;34147;-65
2022/03/27 02:11:22;;;;;;;16.23;7.70;;;;;;;10.17;48.32;101357.25;5570715;32;34168;-65
2022/03/27 02:14:25;;;;;;;20.15;8.18;;;;;;;10.23;48.45;101357.53;5556982;32;33962;-65
2022/03/27 02:17:27;;;;;;;20.02;8.38;;;;;;;10.29;48.47;101364.09;5570578;32;34662;-65
2022/03/27 02:20:30;;;;;;;15.70;8.00;;;;;;;10.39;48.21;101357.78;5570628;32;34564;-65
2022/03/27 02:23:33;;;;;;;14.32;7.53;;;;;;;10.41;48.11;101361.12;5571009;32;34618;-65
2022/03/27 02:26:43;;;;;;;16.95;7.55;;;;;;;10.42;48.15;101370.75;5570565;32;34633;-65
2022/03/27 02:29:45;;;;;;;16.57;7.93;;;;;;;10.46;47.97;101372.13;5551408;32;232969;-65
2022/03/27 02:32:48;;;;;;;15.23;7.43;;;;;;;10.38;48.13;101374.69;5568854;32;34607;-65
2022/03/27 02:35:51;;;;;;;21.95;7.57;;;;;;;10.33;48.35;101371.59;5570576;32;33972;-65
2022/03/27 02:38:54;;;;;;;19.10;8.32;;;;;;;10.48;48.18;101372.00;5570268;32;34087;-65
2022/03/27 02:41:57;;;;;;;19.90;7.78;;;;;;;10.53;47.91;101377.72;5570496;32;34316;-65
2022/03/27 02:45:00;;;;;;;19.48;7.93;;;;;;;10.45;48.23;101380.25;5570370;32;33920;-65
2022/03/27 02:48:03;;;;;;;14.00;7.25;;;;;;;10.28;48.86;101381.81;5570637;32;35298;-65
2022/03/27 02:51:06;;;;;;;15.90;7.35;;;;;;;10.12;49.41;101383.34;5570315;32;34007;-65
2022/03/27 02:54:09;;;;;;;19.02;7.43;;;;;;;9.89;49.91;101380.94;5570275;32;34709;-65
2022/03/27 02:57:12;;;;;;;13.77;7.78;;;;;;;9.81;50.26;101379.97;5570348;32;34057;-65
2022/03/27 03:00:15;;;;;;;19.62;8.02;;;;;;;9.68;50.82;101384.72;5570301;32;34041;-65
2022/03/27 03:03:18;;;;;;;17.40;7.93;;;;;;;9.70;50.82;101388.03;5556674;32;34401;-66
2022/03/27 03:06:22;;;;;;;22.30;9.32;;;;;;;9.62;50.87;101386.09;5570218;32;34472;-65
2022/03/27 03:09:25;;;;;;;15.57;7.43;;;;;;;9.47;51.69;101380.34;5570114;32;34128;-65
2022/03/27 03:12:28;;;;;;;18.30;8.13;;;;;;;9.35;51.82;101388.53;5570607;32;34548;-65
2022/03/27 03:15:31;;;;;;;17.02;8.02;;;;;;;9.23;52.78;101400.22;5570235;32;35166;-65
2022/03/27 03:18:42;;;;;;;17.30;8.00;;;;;;;9.19;53.19;101404.94;5570183;32;34173;-65
2022/03/27 03:21:45;;;;;;;18.12;8.20;;;;;;;9.27;53.18;101405.09;5570063;32;34048;-64
2022/03/27 03:24:47;;;;;;;18.10;8.23;;;;;;;9.27;53.49;101404.25;5570525;32;34660;-65
2022/03/27 03:27:50;;;;;;;19.45;8.90;;;;;;;9.14;53.66;101409.78;5570140;32;34568;-65
2022/03/27 03:30:54;;;;;;;17.55;7.57;;;;;;;9.22;53.91;101412.59;5570040;32;34686;-64
2022/03/27 03:33:57;;;;;;;19.73;8.18;;;;;;;9.00;55.05;101423.37;5570194;32;33918;-65
2022/03/27 03:37:00;;;;;;;22.35;7.70;;;;;;;8.79;55.88;101433.16;5570041;32;34031;-65
2022/03/27 03:40:06;;;;;;;18.15;8.10;;;;;;;8.79;55.93;101431.34;5556189;32;34369;-64
2022/03/27 03:43:13;;;;;;;18.95;8.27;;;;;;;9.03;56.06;101437.19;5556620;32;34694;-65
2022/03/27 03:46:15;;;;;;;23.00;7.62;;;;;;;9.08;55.91;101437.63;5570210;32;34230;-65
2022/03/27 03:49:20;;;;;;;18.40;8.52;;;;;;;9.12;55.67;101440.84;5569691;32;35206;-64
2022/03/27 03:52:23;;;;;;;15.10;7.87;;;;;;;8.92;56.63;101452.31;5570105;32;34669;-66
2022/03/27 03:55:26;;;;;;;18.17;8.07;;;;;;;8.90;56.63;101456.91;5569814;32;33910;-65
2022/03/27 03:58:29;;;;;;;14.13;7.32;;;;;;;9.02;56.23;101456.69;5569728;32;33924;-65
2022/03/27 04:01:32;;;;;;;15.00;7.43;;;;;;;8.83;57.16;101450.44;5569122;32;34121;-65
2022/03/27 04:04:36;;;;;;;14.80;7.57;;;;;;;9.07;57.04;101451.00;5569736;32;34008;-65
2022/03/27 04:07:38;;;;;;;13.60;7.20;;;;;;;9.23;56.78;101459.28;5569605;32;33954;-64
2022/03/27 04:10:42;;;;;;;15.20;7.25;;;;;;;9.29;56.51;101455.28;5569730;32;34749;-65
2022/03/27 04:13:45;;;;;;;19.00;7.95;;;;;;;9.19;56.84;101465.84;5569542;32;34651;-65
2022/03/27 04:16:48;;;;;;;15.75;7.68;;;;;;;9.17;56.99;101467.75;5569446;32;33990;-65
2022/03/27 04:19:51;;;;;;;20.65;8.27;;;;;;;9.14;56.98;101486.56;5569586;32;34020;-65
2022/03/27 04:22:53;;;;;;;16.85;7.80;;;;;;;9.12;57.08;101481.41;5569158;32;34097;-64
2022/03/27 04:25:56;;;;;;;18.50;7.72;;;;;;;9.05;57.20;101487.34;5569398;32;34456;-65
2022/03/27 04:29:00;;;;;;;20.98;8.20;;;;;;;9.04;56.90;101502.41;5569085;32;34320;-65
2022/03/27 04:32:03;;;;;;;19.05;9.00;;;;;;;9.05;56.93;101506.69;5569232;32;34003;-65
2022/03/27 04:35:08;;;;;;;17.30;7.82;;;;;;;8.88;57.12;101517.87;5569194;32;33939;-65
2022/03/27 04:38:13;;;;;;;23.17;9.35;;;;;;;8.82;57.34;101514.91;5569221;32;34163;-65
2022/03/27 04:41:16;;;;;;;23.67;8.88;;;;;;;8.71;57.70;101514.00;5568892;32;34200;-65
2022/03/27 04:44:18;;;;;;;21.67;8.30;;;;;;;8.79;57.34;101521.31;5569049;32;33374;-65
2022/03/27 04:47:22;;;;;;;19.33;8.80;;;;;;;8.72;57.60;101528.06;5569093;32;34384;-65
2022/03/27 04:50:25;;;;;;;19.73;8.65;;;;;;;8.67;57.80;101532.91;5568697;32;34630;-64
2022/03/27 04:53:28;;;;;;;19.83;7.80;;;;;;;8.59;57.84;101541.47;5568896;32;35242;-65
2022/03/27 04:56:31;;;;;;;18.25;8.88;;;;;;;8.57;57.79;101545.19;5569016;32;34754;-65
2022/03/27 04:59:34;;;;;;;18.45;8.98;;;;;;;8.86;56.90;101553.41;5568777;32;34536;-66
2022/03/27 05:02:41;;;;;;;18.98;7.90;;;;;;;8.94;56.55;101558.87;5568659;32;34629;-65
2022/03/27 05:05:44;;;;;;;17.52;8.52;;;;;;;9.03;55.95;101558.94;5568665;32;34003;-66
2022/03/27 05:08:46;;;;;;;19.02;8.23;;;;;;;8.96;56.33;101562.22;5568834;32;33883;-65
2022/03/27 05:11:49;;;;;;;18.77;8.65;;;;;;;8.93;56.87;101565.13;5568773;32;34144;-65
2022/03/27 05:14:52;;;;;;;18.30;8.30;;;;;;;9.01;56.84;101578.56;5571194;32;34019;-66
2022/03/27 05:17:58;;;;;;;20.80;9.70;;;;;;;9.20;56.30;101581.34;5571213;32;33965;-65
2022/03/27 05:21:01;;;;;;;25.30;9.27;;;;;;;9.35;56.19;101582.69;5571146;32;32744;-66
2022/03/27 05:24:06;;;;;;;22.15;10.23;;;;;;;9.50;56.08;101575.25;5557510;32;34281;-65
2022/03/27 05:27:09;;;;;;;24.60;8.95;;;;;;;9.37;56.33;101578.12;5571118;32;34327;-65
2022/03/27 05:30:14;;;;;;;21.40;9.48;;;;;;;9.48;56.24;101588.63;5570909;32;34036;-65
2022/03/27 05:33:17;;;;;;;16.67;7.70;;;;;;;9.56;56.57;101587.97;5571088;32;34731;-66
2022/03/27 05:36:21;;;;;;;16.95;7.32;;;;;;;9.56;57.32;101582.66;5571285;32;34076;-65
2022/03/27 05:39:24;;;;;;;17.33;6.72;;;;;;;9.57;57.66;101590.50;5571115;32;34316;-66
2022/03/27 05:42:27;;;;;;;14.38;6.75;;;;;;;9.56;57.85;101598.56;5570926;32;34965;-66
2022/03/27 05:45:30;;;;;;;14.45;6.53;;;;;;;9.67;57.88;101605.59;5570901;32;34173;-65
2022/03/27 05:48:33;;;;;;;13.75;6.10;;;;;;;9.64;57.94;101611.97;5570802;32;33933;-66
2022/03/27 05:51:35;;;;;;;14.45;5.57;;;;;;;9.50;58.41;101615.81;5570945;32;34053;-66
2022/03/27 05:54:38;;;;;;;14.13;6.15;;;;;;;9.51;58.42;101622.81;5570799;32;33918;-65
2022/03/27 05:57:42;;;;;;;10.23;5.20;;;;;;;9.51;58.25;101620.16;5557428;32;34033;-65
2022/03/27 06:00:45;;;;;;;16.90;6.22;;;;;;;9.54;58.25;101633.13;5570778;32;34685;-65
2022/03/27 06:03:48;;;;;;;11.85;5.07;;;;;;;9.53;58.22;101638.56;5570714;32;34573;-66
2022/03/27 06:06:51;;;;;;;10.93;5.47;;;;;;;9.37;58.82;101651.44;5570563;32;35207;-65
2022/03/27 06:09:57;;;;;;;12.95;5.22;;;;;;;9.51;58.47;101654.59;5557283;32;34068;-66
2022/03/27 06:13:01;;;;;;;10.88;6.15;;;;;;;9.47;58.60;101660.28;5569777;32;34109;-66
2022/03/27 06:16:04;;;;;;;11.60;6.00;;;;;;;9.52;58.32;101655.44;5570005;32;35082;-65
2022/03/27 06:19:07;;;;;;;9.95;5.35;;;;;;;9.72;57.83;101657.22;5570552;32;33995;-66
2022/03/27 06:22:10;;;;;;;10.40;5.72;;;;;;;9.91;57.22;101667.94;5556950;32;34075;-65
2022/03/27 06:25:16;;;;;;;11.32;5.93;;;;;;;9.84;57.24;101673.87;5570598;32;34721;-65
2022/03/27 06:28:19;;;;;;;8.68;5.50;;;;;;;10.07;56.76;101670.06;5570451;32;33968;-66
2022/03/27 06:31:22;;;;;;;10.05;5.00;;;;;;;10.39;55.93;101670.81;5570482;32;33975;-65
2022/03/27 06:34:26;;;;;;;14.98;5.32;;;;;;;10.95;53.95;101683.47;5556050;32;34229;-65
2022/03/27 06:37:29;;;;;;;11.95;6.05;;;;;;;11.34;52.56;101682.50;5570480;32;34673;-65
2022/03/27 06:40:32;;;;;;;11.98;5.10;;;;;;;11.98;50.66;101679.19;5570456;32;34015;-65
2022/03/27 06:43:36;;;;;;;8.52;5.22;;;;;;;12.24;49.94;101682.03;5570591;32;34802;-65
2022/03/27 06:46:39;;;;;;;12.70;4.75;;;;;;;11.85;50.55;101684.00;5570351;32;34743;-65
2022/03/27 06:49:41;;;;;;;8.07;4.68;;;;;;;11.50;51.72;101684.59;5570213;32;33951;-65
2022/03/27 06:52:47;;;;;;;8.85;4.43;;;;;;;12.27;50.01;101688.88;5556670;32;33866;-66
2022/03/27 06:55:51;;;;;;;7.15;4.30;;;;;;;12.38;49.35;101694.84;5569904;32;34858;-65
2022/03/27 06:58:54;;;;;;;9.43;4.55;;;;;;;12.52;49.47;101693.53;5570437;32;34084;-66
2022/03/27 07:05:18;;;;;;;7.87;4.60;;;;;;;12.81;48.34;101704.00;5570034;32;34428;-66
2022/03/27 07:08:21;;;;;;;7.25;4.12;;;;;;;13.30;46.82;101698.19;5570411;32;34160;-65
2022/03/27 07:11:24;;;;;;;9.18;4.45;;;;;;;13.49;46.28;101702.53;5569930;32;33894;-65
2022/03/27 07:14:27;;;;;;;10.40;4.18;;;;;;;14.50;44.64;101714.31;5569934;32;35473;-65
2022/03/27 07:17:30;;;;;;;7.65;4.35;;;;;;;13.22;46.96;101708.75;5570159;32;33910;-66
2022/03/27 07:20:35;;;;;;;9.30;4.10;;;;;;;14.13;45.29;101699.47;5570392;32;35275;-65
2022/03/27 07:23:38;;;;;;;6.72;4.10;;;;;;;14.71;43.27;101715.59;5570074;32;34703;-67
2022/03/27 07:26:43;;;;;;;8.98;4.37;;;;;;;15.57;41.93;101712.56;5570035;32;35204;-67
2022/03/27 07:29:46;;;;;;;6.50;3.75;;;;;;;16.12;40.56;101722.53;5570217;31;33896;-66
2022/03/27 07:32:51;;;;;;;5.70;3.72;;;;;;;16.22;40.54;101725.81;5569793;32;34075;-67
2022/03/27 07:35:55;;;;;;;7.00;3.53;;;;;;;16.80;38.72;101723.59;5568926;32;34578;-66
2022/03/27 07:38:57;;;;;;;6.32;3.87;;;;;;;15.70;41.32;101726.25;5569764;32;34023;-65
2022/03/27 07:42:04;;;;;;;11.07;4.53;;;;;;;15.80;41.22;101720.72;5570038;32;34684;-65
2022/03/27 07:45:09;;;;;;;5.53;3.75;;;;;;;15.78;41.34;101733.47;5569562;32;34842;-65
2022/03/27 07:48:12;;;;;;;5.68;3.50;;;;;;;14.86;43.25;101731.84;5569741;31;33834;-66
2022/03/27 07:51:16;;;;;;;5.80;3.72;;;;;;;16.92;38.75;101726.75;5570051;32;35405;-66
2022/03/27 07:54:19;;;;;;;7.35;3.75;;;;;;;16.45;39.50;101732.13;5569896;32;33994;-66
2022/03/27 07:57:22;;;;;;;6.65;3.83;;;;;;;15.45;41.77;101730.75;5569594;32;34123;-66
2022/03/27 08:00:30;;;;;;;8.73;4.30;;;;;;;15.14;43.02;101732.41;5569699;32;34612;-66
2022/03/27 08:03:38;;;;;;;12.68;4.62;;;;;;;17.52;37.59;101729.50;5556109;32;33974;-66
2022/03/27 08:06:43;;;;;;;6.22;4.32;;;;;;;15.96;40.93;101726.06;5569433;32;34613;-66
2022/03/27 08:09:46;;;;;;;7.03;3.92;;;;;;;16.23;40.40;101727.50;5556023;32;34455;-66
2022/03/27 08:12:49;;;;;;;6.85;4.25;;;;;;;18.05;36.61;101730.41;5569572;32;34689;-66
2022/03/27 08:15:52;;;;;;;6.80;3.70;;;;;;;19.28;33.79;101717.87;5569455;32;34163;-66
2022/03/27 08:18:55;;;;;;;7.60;4.05;;;;;;;18.76;35.09;101728.91;5569394;32;33944;-66
2022/03/27 08:22:00;;;;;;;4.65;3.62;;;;;;;18.50;35.43;101740.94;5569354;32;35213;-66
2022/03/27 08:25:03;;;;;;;8.98;4.30;;;;;;;18.73;34.92;101735.50;5569392;32;33999;-66
2022/03/27 08:28:08;;;;;;;5.97;3.80;;;;;;;18.11;36.23;101729.63;5569272;31;35296;-67
2022/03/27 08:31:11;;;;;;;6.53;3.97;;;;;;;18.76;35.35;101739.66;5569610;32;33969;-67
2022/03/27 08:34:14;;;;;;;5.93;4.00;;;;;;;18.47;35.91;101729.75;5569417;32;34571;-67
2022/03/27 08:37:17;;;;;;;6.62;3.92;;;;;;;17.68;37.45;101731.22;5569317;32;34015;-66
2022/03/27 08:40:20;;;;;;;5.57;3.80;;;;;;;17.96;37.21;101742.25;5568997;32;35136;-67
2022/03/27 08:43:25;;;;;;;8.88;4.20;;;;;;;18.17;36.43;101731.59;5568906;32;34019;-67
2022/03/27 08:46:29;;;;;;;6.60;4.00;;;;;;;18.58;36.16;101732.00;5568811;32;34338;-67
2022/03/27 08:49:55;;;;;;;7.75;4.03;;;;;;;16.88;38.48;101736.97;5571227;32;33924;-66
2022/03/27 08:53:04;;;;;;;7.97;4.70;;;;;;;16.53;39.38;101740.97;5571170;32;33982;-66
2022/03/27 08:56:07;;;;;;;7.53;4.40;;;;;;;17.83;36.79;101733.94;5571257;32;34716;-65
2022/03/27 08:59:11;;;;;;;7.65;4.20;;;;;;;19.08;35.33;101737.34;5571455;32;34089;-66
2022/03/27 09:02:14;;;;;;;8.95;4.37;;;;;;;20.36;32.17;101735.37;5570994;32;33960;-66
2022/03/27 09:05:20;;;;;;;7.37;4.47;;;;;;;16.82;38.54;101734.16;5570719;32;34617;-66
2022/03/27 09:08:23;;;;;;;8.23;4.72;;;;;;;15.80;40.90;101737.63;5571272;32;33935;-66
2022/03/27 09:11:30;;;;;;;9.13;4.28;;;;;;;14.37;44.49;101745.97;5557093;32;34079;-67
2022/03/27 09:14:34;;;;;;;7.55;4.47;;;;;;;14.57;44.42;101742.09;5571143;32;34060;-66
2022/03/27 09:18:00;;;;;;;8.25;4.53;;;;;;;14.38;45.54;101743.13;5570782;32;34164;-66
2022/03/27 09:21:03;;;;;;;7.78;4.55;;;;;;;14.45;45.12;101743.34;5570216;32;34084;-67
2022/03/27 09:24:06;;;;;;;9.38;4.55;;;;;;;14.49;45.43;101737.53;5570885;32;33977;-66
2022/03/27 09:27:14;;;;;;;7.30;4.37;;;;;;;14.68;44.63;101733.75;5570825;32;33991;-65
2022/03/27 09:30:17;;;;;;;9.23;4.35;;;;;;;14.32;45.12;101733.09;5570589;32;33911;-66
2022/03/27 09:33:33;;;;;;;9.90;4.70;;;;;;;14.28;45.64;101737.06;5571274;32;33921;-66
2022/03/27 09:36:42;;;;;;;7.00;4.60;;;;;;;14.25;45.73;101734.69;5570971;32;34621;-66
2022/03/27 09:39:56;;;;;;;8.27;4.90;;;;;;;14.29;45.63;101731.56;5570953;32;33880;-66
2022/03/27 09:43:11;;;;;;;8.65;4.65;;;;;;;13.86;46.70;101723.62;5570848;32;34206;-66
2022/03/27 09:46:14;;;;;;;9.30;4.78;;;;;;;13.78;46.97;101723.56;5570834;32;34127;-65
2022/03/27 09:49:19;;;;;;;8.63;4.75;;;;;;;14.13;46.45;101731.47;5570222;32;35544;-66
2022/03/27 09:52:24;;;;;;;15.07;5.35;;;;;;;14.35;46.04;101728.25;5570554;32;34146;-66
2022/03/27 09:55:27;;;;;;;13.48;4.60;;;;;;;13.92;46.66;101718.50;5570675;32;34539;-66
2022/03/27 09:58:45;;;;;;;6.60;4.03;;;;;;;14.19;46.01;101722.81;5570130;32;34153;-67
2022/03/27 10:01:48;;;;;;;7.30;4.78;;;;;;;14.19;45.62;101717.47;5570378;32;34705;-67
2022/03/27 10:04:54;;;;;;;9.45;4.87;;;;;;;13.99;46.21;101713.34;5543438;32;34131;-67
2022/03/27 10:07:56;;;;;;;8.43;4.60;;;;;;;14.22;46.26;101721.69;5570493;32;33879;-66
2022/03/27 10:11:00;;;;;;;11.70;4.82;;;;;;;14.46;45.76;101721.00;5570599;32;34579;-66
2022/03/27 10:14:04;;;;;;;10.73;5.05;;;;;;;14.64;45.06;101722.56;5570675;32;34025;-66
2022/03/27 10:17:10;;;;;;;6.18;4.20;;;;;;;14.37;45.30;101720.12;5570477;32;33928;-65
2022/03/27 10:20:18;;;;;;;9.15;4.47;;;;;;;14.46;45.18;101723.66;5570359;32;34603;-66
2022/03/27 10:23:23;;;;;;;8.23;4.80;;;;;;;14.82;44.03;101729.63;5570356;32;34708;-68
2022/03/27 10:26:26;;;;;;;9.45;4.93;;;;;;;14.65;44.36;101724.25;5556666;32;34039;-66
2022/03/27 10:29:29;;;;;;;10.75;4.40;;;;;;;14.80;44.46;101727.12;5570628;32;33888;-66
2022/03/27 10:32:34;;;;;;;9.23;4.72;;;;;;;14.57;44.76;101732.19;5570307;32;34069;-65
2022/03/27 10:35:43;;;;;;;7.22;4.57;;;;;;;14.67;44.29;101724.06;5570283;32;33990;-67
2022/03/27 10:39:06;;;;;;;8.65;5.10;;;;;;;14.84;44.00;101722.28;5570214;32;34049;-66
2022/03/27 10:42:15;;;;;;;7.55;4.90;;;;;;;14.89;43.75;101723.47;5570083;32;34032;-66
2022/03/27 10:45:20;;;;;;;9.45;4.45;;;;;;;15.09;43.20;101716.00;5570157;32;34619;-66
2022/03/27 10:48:37;;;;;;;7.62;4.43;;;;;;;15.02;43.30;101714.97;5569927;32;34208;-66
2022/03/27 10:51:45;;;;;;;7.97;4.53;;;;;;;15.26;42.83;101698.13;5570131;32;35403;-66
2022/03/27 10:55:06;;;;;;;9.85;4.68;;;;;;;15.12;42.57;101707.66;5570115;32;34112;-66
2022/03/27 10:58:41;;;;;;;8.98;4.75;;;;;;;15.38;41.74;101705.69;5570050;32;33931;-66
2022/03/27 11:01:49;;;;;;;6.50;4.32;;;;;;;16.69;39.16;101697.22;5527567;32;34100;-66
2022/03/27 11:04:52;;;;;;;8.15;4.95;;;;;;;20.58;32.20;101692.09;5569971;32;35200;-66
2022/03/27 11:08:17;;;;;;;8.40;4.75;;;;;;;23.89;26.93;101686.47;5570115;32;33867;-66
2022/03/27 11:11:35;;;;;;;7.47;4.28;;;;;;;21.97;28.70;101697.53;5568553;32;34547;-67
2022/03/27 11:14:53;;;;;;;9.60;4.32;;;;;;;24.71;25.05;101698.69;5569922;32;34054;-67
2022/03/27 11:18:10;;;;;;;5.40;3.87;;;;;;;25.31;24.75;101688.66;5570240;32;34707;-67
2022/03/27 11:21:34;;;;;;;6.25;4.05;;;;;;;23.07;26.47;101682.13;5569985;32;34717;-67
2022/03/27 11:24:38;;;;;;;6.40;3.90;;;;;;;22.24;28.46;101679.38;5569676;32;34470;-67
2022/03/27 11:28:02;;;;;;;7.80;4.22;;;;;;;21.77;28.25;101676.94;5569978;32;33997;-66
2022/03/27 11:31:21;;;;;;;6.70;4.25;;;;;;;21.59;28.61;101664.09;5530731;32;35124;-68
2022/03/27 11:34:26;;;;;;;6.18;4.68;;;;;;;26.10;23.16;101665.50;5530818;32;34776;-68
2022/03/27 11:37:28;;;;;;;8.68;3.90;;;;;;;23.16;26.56;101668.09;5530889;32;34621;-68
2022/03/27 11:40:40;;;;;;;6.40;3.83;;;;;;;27.26;21.58;101659.63;5530779;32;33961;-68
2022/03/27 11:43:43;;;;;;;6.35;3.90;;;;;;;26.40;22.45;101660.75;5530848;32;34675;-68
2022/03/27 11:46:48;;;;;;;9.43;4.20;;;;;;;26.00;22.30;101651.72;5530729;32;34085;-69
2022/03/27 11:49:51;;;;;;;6.60;4.00;;;;;;;27.27;20.90;101653.13;5530509;32;35229;-69
2022/03/27 11:52:56;;;;;;;7.45;4.20;;;;;;;26.18;22.17;101651.56;5530666;32;33953;-69
2022/03/27 11:56:10;;;;;;;6.62;4.07;;;;;;;25.22;23.51;101646.59;5530607;32;34769;-69
2022/03/27 11:59:14;;;;;;;7.00;3.95;;;;;;;25.24;23.15;101647.16;5530870;32;34100;-69
2022/03/27 12:02:19;;;;;;;7.75;4.35;;;;;;;22.38;26.69;101645.00;5530799;32;34002;-69
2022/03/27 12:05:32;;;;;;;8.13;3.85;;;;;;;26.76;21.51;101640.50;5530910;32;34643;-69
2022/03/27 12:08:37;;;;;;;6.78;3.65;;;;;;;26.88;21.05;101641.28;5530713;32;34348;-69
2022/03/27 12:11:40;;;;;;;5.75;3.90;;;;;;;24.36;24.08;101636.94;5530381;32;34075;-69
2022/03/27 12:14:54;;;;;;;6.35;4.00;;;;;;;26.44;22.38;101636.59;5530692;32;35233;-69
2022/03/27 12:17:56;;;;;;;8.70;4.35;;;;;;;25.40;22.65;101628.31;5530524;32;34615;-68
2022/03/27 12:21:09;;;;;;;5.37;4.07;;;;;;;22.72;25.84;101633.00;5530173;32;33897;-69
2022/03/27 12:24:13;;;;;;;8.52;4.20;;;;;;;23.56;25.21;101628.00;5529833;32;34457;-68
2022/03/27 12:30:47;;;;;;;6.90;4.10;;;;;;;27.18;20.87;101625.47;5565304;32;34685;-69
2022/03/27 12:33:51;;;;;;;5.28;3.72;;;;;;;27.47;20.46;101615.28;5568848;32;34683;-69
2022/03/27 12:37:14;;;;;;;4.90;3.75;;;;;;;28.07;19.67;101611.78;5569091;32;34636;-69
2022/03/27 12:40:17;;;;;;;4.45;3.65;;;;;;;26.72;21.03;101612.09;5555760;32;35013;-69
2022/03/27 12:43:21;;;;;;;5.90;3.90;;;;;;;29.12;18.45;101605.81;5568983;32;34051;-68
2022/03/27 12:46:31;;;;;;;6.43;3.83;;;;;;;27.63;19.69;101605.47;5568794;32;34021;-68
2022/03/27 12:49:47;;;;;;;5.68;3.90;;;;;;;27.60;19.89;101601.31;5568706;32;34318;-68
2022/03/27 12:52:55;;;;;;;6.45;3.85;;;;;;;29.99;17.43;101608.06;5568755;32;33942;-68
2022/03/27 12:56:01;;;;;;;5.78;3.50;;;;;;;24.37;22.82;101606.03;5568535;32;34134;-68
2022/03/27 12:59:17;;;;;;;6.12;3.45;;;;;;;26.32;21.12;101588.50;5568458;32;34281;-69
2022/03/27 13:02:27;;;;;;;4.90;3.53;;;;;;;28.80;18.69;101589.44;5568625;32;34041;-69
2022/03/27 13:05:30;;;;;;;5.30;3.65;;;;;;;26.95;19.95;101592.94;5568436;32;34251;-68
2022/03/27 13:08:36;;;;;;;4.93;3.45;;;;;;;24.39;22.99;101584.12;5554635;32;35354;-69
2022/03/27 13:11:43;;;;;;;6.75;3.92;;;;;;;27.63;19.90;101572.75;5568339;32;33881;-69
2022/03/27 13:14:46;;;;;;;6.00;3.50;;;;;;;30.13;17.11;101564.59;5567864;32;35350;-68
2022/03/27 13:18:05;;;;;;;6.72;3.70;;;;;;;26.60;20.52;101563.16;5568108;32;33936;-68
2022/03/27 13:21:17;;;;;;;10.55;4.18;;;;;;;25.82;21.28;101566.50;5568235;32;34042;-68
2022/03/27 13:24:26;;;;;;;8.75;3.80;;;;;;;27.55;19.49;101564.97;5554230;32;34772;-68
2022/03/27 13:27:28;;;;;;;5.35;3.80;;;;;;;25.42;21.91;101571.00;5568369;32;34036;-68
2022/03/27 13:30:31;;;;;;;6.32;4.05;;;;;;;27.07;20.14;101555.53;5568311;31;34182;-68
2022/03/27 13:33:34;;;;;;;7.03;3.72;;;;;;;28.19;18.90;101554.38;5568367;32;34535;-68
2022/03/27 13:36:41;;;;;;;5.53;3.75;;;;;;;27.30;19.66;101551.81;5570853;32;34497;-69
2022/03/27 13:39:45;;;;;;;5.30;4.03;;;;;;;28.97;18.11;101544.75;5570806;32;35282;-68
2022/03/27 13:42:58;;;;;;;8.10;3.53;;;;;;;29.52;17.64;101545.16;5570510;32;34108;-68
2022/03/27 13:46:01;;;;;;;6.85;4.30;;;;;;;31.49;16.04;101550.97;5570676;32;33993;-69
2022/03/27 13:49:04;;;;;;;5.85;3.80;;;;;;;27.80;19.05;101535.34;5570658;32;34578;-67
2022/03/27 13:52:09;;;;;;;5.78;4.15;;;;;;;28.37;18.37;101541.19;5570418;32;34003;-68
2022/03/27 13:55:11;;;;;;;7.57;4.15;;;;;;;25.75;21.20;101543.25;5570145;32;33998;-68
2022/03/27 13:58:16;;;;;;;7.22;3.78;;;;;;;25.52;21.45;101533.19;5570738;32;33964;-67
2022/03/27 14:01:18;;;;;;;10.73;4.12;;;;;;;28.62;18.72;101532.41;5570634;32;34684;-68
2022/03/27 14:04:23;;;;;;;6.70;3.87;;;;;;;30.94;16.40;101529.91;5571159;32;34003;-67
2022/03/27 14:07:26;;;;;;;9.07;4.60;;;;;;;27.35;19.50;101519.19;5570454;32;34600;-68
2022/03/27 14:10:29;;;;;;;6.00;3.53;;;;;;;27.09;19.77;101517.97;5557381;32;34556;-67
2022/03/27 14:13:33;;;;;;;6.28;4.07;;;;;;;28.67;19.06;101524.28;5570631;32;34009;-68
2022/03/27 14:16:37;;;;;;;6.10;4.22;;;;;;;26.67;20.21;101520.28;5570389;32;35313;-67
2022/03/27 14:19:40;;;;;;;13.80;4.20;;;;;;;22.80;24.44;101516.41;5570348;32;34016;-67
2022/03/27 14:22:47;;;;;;;6.00;3.85;;;;;;;26.74;20.85;101511.94;5570380;32;34040;-67
2022/03/27 14:25:52;;;;;;;6.95;4.00;;;;;;;27.59;19.39;101515.16;5570047;32;33664;-68
2022/03/27 14:28:55;;;;;;;5.80;3.47;;;;;;;29.03;17.92;101500.00;5570066;32;33507;-68